createdAt,value
2018-05-31T00:00:45.502Z,23.73
2018-05-31T00:03:13.739Z,22.83
2018-05-31T00:05:41.997Z,23.67
2018-05-31T00:08:11.001Z,23.63
2018-05-31T00:10:39.251Z,24.03
2018-05-31T00:13:08.262Z,23.87
2018-05-31T00:15:37.270Z,22.67
2018-05-31T00:18:05.518Z,21.87
2018-05-31T00:20:34.540Z,22.90
2018-05-31T00:23:02.784Z,23.40
2018-05-31T00:25:31.808Z,21.60
2018-05-31T00:28:00.054Z,22.03
2018-05-31T00:30:29.070Z,23.67
2018-05-31T00:32:57.308Z,21.63
2018-05-31T00:35:26.322Z,22.87
2018-05-31T00:37:54.579Z,22.90
2018-05-31T00:40:23.600Z,23.67
2018-05-31T00:42:51.859Z,22.37
2018-05-31T00:45:20.111Z,24.30
2018-05-31T00:47:49.152Z,23.50
2018-05-31T00:50:17.391Z,23.50
2018-05-31T00:52:46.416Z,23.20
2018-05-31T00:55:15.003Z,22.00
2018-05-31T00:57:43.250Z,22.83
2018-05-31T01:00:11.486Z,22.97
2018-05-31T01:02:39.735Z,22.77
2018-05-31T01:05:07.976Z,22.80
2018-05-31T01:07:36.244Z,22.30
2018-05-31T01:10:04.486Z,22.90
2018-05-31T01:12:32.741Z,21.90
2018-05-31T01:15:00.979Z,22.53
2018-05-31T01:17:29.219Z,22.43
2018-05-31T01:19:58.225Z,23.43
2018-05-31T01:22:27.243Z,23.13
2018-05-31T01:24:55.492Z,25.03
2018-05-31T01:27:24.498Z,24.50
2018-05-31T01:29:52.726Z,23.47
2018-05-31T01:32:20.991Z,23.80
2018-05-31T01:34:49.231Z,24.30
2018-05-31T01:37:17.494Z,25.03
2018-05-31T01:39:45.739Z,25.00
2018-05-31T01:42:14.771Z,23.87
2018-05-31T01:44:43.306Z,22.00
2018-05-31T01:47:11.538Z,22.60
2018-05-31T01:49:39.806Z,24.07
2018-05-31T01:52:08.046Z,23.33
2018-05-31T01:54:37.073Z,23.83
2018-05-31T01:57:05.306Z,24.53
2018-05-31T01:59:34.331Z,24.33
2018-05-31T02:02:02.969Z,24.93
2018-05-31T02:04:31.198Z,24.20
2018-05-31T02:06:59.438Z,24.43
2018-05-31T02:09:27.699Z,24.80
2018-05-31T02:11:56.706Z,24.77
2018-05-31T02:14:25.728Z,25.57
2018-05-31T02:16:53.971Z,25.40
2018-05-31T02:19:22.990Z,23.27
2018-05-31T02:21:51.227Z,23.50
2018-05-31T02:24:20.247Z,21.90
2018-05-31T02:26:48.498Z,24.80
2018-05-31T02:29:17.519Z,24.53
2018-05-31T02:31:45.759Z,25.47
2018-05-31T02:34:14.787Z,26.17
2018-05-31T02:36:43.026Z,25.17
2018-05-31T02:39:12.052Z,24.47
2018-05-31T02:41:40.288Z,21.67
2018-05-31T02:44:09.314Z,23.07
2018-05-31T02:46:37.568Z,22.43
2018-05-31T02:49:06.595Z,23.60
2018-05-31T02:51:34.838Z,21.63
2018-05-31T02:54:03.496Z,25.17
2018-05-31T02:56:31.719Z,25.43
2018-05-31T02:58:59.979Z,26.20
2018-05-31T03:01:28.267Z,26.00
2018-05-31T03:03:56.534Z,27.23
2018-05-31T03:06:24.775Z,26.87
2018-05-31T03:08:53.777Z,25.97
2018-05-31T03:11:22.798Z,24.80
2018-05-31T03:13:51.038Z,26.67
2018-05-31T03:16:20.067Z,26.27
2018-05-31T03:18:48.311Z,24.67
2018-05-31T03:21:17.335Z,25.80
2018-05-31T03:23:45.583Z,27.27
2018-05-31T03:26:13.840Z,25.97
2018-05-31T03:28:42.843Z,30.10
2018-05-31T03:31:11.102Z,27.77
2018-05-31T03:33:40.498Z,27.60
2018-05-31T03:36:08.739Z,26.17
2018-05-31T03:38:36.979Z,25.53
2018-05-31T03:41:05.238Z,26.17
2018-05-31T03:43:34.239Z,28.27
2018-05-31T03:46:02.503Z,29.23
2018-05-31T03:48:31.503Z,26.03
2018-05-31T03:50:59.764Z,29.37
2018-05-31T03:53:28.764Z,27.47
2018-05-31T03:55:57.027Z,29.00
2018-05-31T03:58:26.416Z,28.77
2018-05-31T04:00:54.657Z,28.67
2018-05-31T04:03:23.284Z,31.57
2018-05-31T04:05:52.298Z,32.53
2018-05-31T04:08:20.547Z,32.03
2018-05-31T04:10:49.565Z,31.50
2018-05-31T04:13:17.811Z,31.27
2018-05-31T04:15:46.839Z,32.47
2018-05-31T04:18:15.078Z,32.30
2018-05-31T04:20:44.123Z,33.93
2018-05-31T04:23:12.367Z,34.30
2018-05-31T04:25:40.632Z,35.90
2018-05-31T04:28:09.631Z,35.83
2018-05-31T04:30:37.893Z,37.03
2018-05-31T04:33:06.902Z,37.67
2018-05-31T04:35:35.162Z,36.47
2018-05-31T04:38:04.163Z,37.57
2018-05-31T04:40:32.398Z,35.03
2018-05-31T04:43:00.659Z,33.27
2018-05-31T04:45:28.908Z,35.30
2018-05-31T04:47:57.168Z,33.63
2018-05-31T04:50:25.412Z,32.83
2018-05-31T04:52:54.442Z,34.03
2018-05-31T04:55:22.679Z,33.03
2018-05-31T04:57:51.702Z,31.23
2018-05-31T05:00:19.957Z,32.23
2018-05-31T05:02:48.987Z,31.83
2018-05-31T05:05:17.222Z,30.67
2018-05-31T05:07:46.247Z,33.57
2018-05-31T05:10:14.474Z,31.00
2018-05-31T05:12:43.506Z,31.47
2018-05-31T05:15:11.747Z,30.57
2018-05-31T05:17:40.783Z,31.67
2018-05-31T05:20:09.012Z,31.77
2018-05-31T05:22:38.039Z,30.03
2018-05-31T05:25:06.284Z,29.60
2018-05-31T05:27:35.310Z,30.83
2018-05-31T05:30:03.547Z,29.87
2018-05-31T05:32:32.631Z,30.70
2018-05-31T05:35:00.819Z,30.27
2018-05-31T05:37:29.846Z,29.47
2018-05-31T05:39:58.087Z,31.50
2018-05-31T05:42:27.116Z,29.23
2018-05-31T05:44:55.350Z,28.43
2018-05-31T05:47:24.379Z,27.97
2018-05-31T05:49:53.006Z,28.20
2018-05-31T05:52:21.242Z,27.97
2018-05-31T05:54:49.483Z,26.10
2018-05-31T05:57:17.735Z,27.10
2018-05-31T05:59:46.742Z,27.87
2018-05-31T06:02:15.773Z,26.87
2018-05-31T06:04:44.396Z,24.50
2018-05-31T06:07:12.643Z,23.63
2018-05-31T06:09:40.887Z,24.07
2018-05-31T06:12:09.146Z,24.17
2018-05-31T06:14:37.390Z,23.80
2018-05-31T06:17:05.801Z,23.13
2018-05-31T06:19:34.910Z,22.00
2018-05-31T06:22:03.156Z,21.73
2018-05-31T06:24:32.171Z,21.40
2018-05-31T06:27:00.423Z,20.00
2018-05-31T06:29:29.434Z,20.37
2018-05-31T06:31:57.691Z,18.60
2018-05-31T06:34:26.706Z,18.93
2018-05-31T06:36:54.982Z,19.57
2018-05-31T06:39:23.619Z,19.47
2018-05-31T06:41:51.835Z,18.90
2018-05-31T06:44:20.107Z,18.83
2018-05-31T06:46:48.357Z,17.33
2018-05-31T06:49:17.366Z,18.00
2018-05-31T06:51:45.608Z,17.90
2018-05-31T06:54:13.862Z,17.43
2018-05-31T06:56:42.101Z,18.27
2018-05-31T06:59:10.358Z,17.07
2018-05-31T07:01:38.596Z,17.83
2018-05-31T07:04:06.852Z,18.13
2018-05-31T07:06:35.095Z,17.90
2018-05-31T07:09:03.351Z,17.63
2018-05-31T07:11:40.988Z,16.43
2018-05-31T07:14:12.124Z,15.60
2018-05-31T07:16:41.137Z,16.90
2018-05-31T07:19:09.393Z,15.73
2018-05-31T07:21:37.630Z,16.30
2018-05-31T07:24:05.892Z,15.23
2018-05-31T07:26:34.895Z,14.63
2018-05-31T07:29:03.156Z,13.95
2018-05-31T07:31:32.164Z,12.98
2018-05-31T07:34:00.415Z,13.32
2018-05-31T07:36:29.426Z,14.15
2018-05-31T07:38:57.684Z,13.70
2018-05-31T07:41:26.695Z,13.05
2018-05-31T07:43:54.979Z,13.50
2018-05-31T07:46:23.224Z,13.70
2018-05-31T07:48:52.252Z,13.52
2018-05-31T07:51:20.525Z,13.30
2018-05-31T07:53:50.043Z,12.98
2018-05-31T07:56:18.295Z,13.45
2018-05-31T07:58:46.554Z,14.05
2018-05-31T08:01:14.793Z,14.45
2018-05-31T08:03:43.061Z,12.52
2018-05-31T08:06:11.299Z,13.43
2018-05-31T08:08:39.580Z,12.00
2018-05-31T08:11:07.823Z,12.13
2018-05-31T08:13:36.849Z,11.88
2018-05-31T08:16:05.092Z,12.40
2018-05-31T08:18:34.115Z,11.27
2018-05-31T08:21:02.356Z,10.90
2018-05-31T08:23:30.615Z,10.27
2018-05-31T08:25:59.615Z,9.85
2018-05-31T08:28:28.638Z,10.00
2018-05-31T08:30:56.875Z,10.95
2018-05-31T08:33:25.903Z,10.20
2018-05-31T08:35:54.302Z,10.75
2018-05-31T08:38:22.573Z,10.13
2018-05-31T08:40:50.828Z,9.40
2018-05-31T08:43:19.056Z,10.15
2018-05-31T08:45:47.315Z,11.45
2018-05-31T08:48:15.550Z,10.15
2018-05-31T08:50:43.802Z,10.13
2018-05-31T08:53:12.041Z,9.82
2018-05-31T08:55:40.296Z,11.50
2018-05-31T08:58:08.535Z,10.35
2018-05-31T09:00:36.790Z,9.98
2018-05-31T09:03:05.803Z,10.18
2018-05-31T09:05:34.059Z,9.40
2018-05-31T09:08:03.063Z,9.55
2018-05-31T09:10:31.320Z,9.65
2018-05-31T09:13:00.319Z,9.55
2018-05-31T09:15:29.345Z,10.27
2018-05-31T09:17:57.597Z,9.23
2018-05-31T09:20:25.852Z,9.88
2018-05-31T09:22:54.851Z,9.38
2018-05-31T09:25:23.871Z,9.73
2018-05-31T09:27:52.107Z,9.73
2018-05-31T09:30:21.123Z,9.00
2018-05-31T09:32:49.369Z,10.23
2018-05-31T09:35:17.627Z,10.30
2018-05-31T09:37:45.864Z,9.65
2018-05-31T09:40:14.493Z,11.75
2018-05-31T09:42:42.720Z,12.30
2018-05-31T09:45:10.968Z,12.00
2018-05-31T09:47:39.216Z,10.57
2018-05-31T09:50:07.471Z,11.85
2018-05-31T09:52:35.703Z,10.52
2018-05-31T09:55:03.960Z,11.93
2018-05-31T09:57:32.204Z,10.57
2018-05-31T10:00:00.468Z,10.80
2018-05-31T10:02:28.710Z,9.98
2018-05-31T10:04:56.963Z,11.12
2018-05-31T10:07:25.206Z,10.35
2018-05-31T10:09:53.788Z,11.80
2018-05-31T10:12:22.040Z,10.68
2018-05-31T10:14:50.278Z,10.88
2018-05-31T10:17:18.535Z,10.65
2018-05-31T10:19:46.782Z,10.05
2018-05-31T10:22:15.033Z,9.65
2018-05-31T10:24:43.267Z,10.10
2018-05-31T10:27:11.515Z,9.52
2018-05-31T10:29:40.515Z,9.15
2018-05-31T10:32:09.539Z,9.55
2018-05-31T10:34:37.772Z,9.30
2018-05-31T10:37:06.781Z,8.32
2018-05-31T10:39:35.011Z,9.02
2018-05-31T10:42:03.263Z,9.73
2018-05-31T10:44:31.495Z,9.63
2018-05-31T10:47:00.511Z,8.40
2018-05-31T10:49:28.758Z,8.73
2018-05-31T10:51:57.771Z,8.57
2018-05-31T10:54:26.004Z,8.68
2018-05-31T10:56:54.262Z,8.63
2018-05-31T10:59:22.494Z,8.68
2018-05-31T11:01:50.755Z,8.60
2018-05-31T11:04:19.727Z,7.93
2018-05-31T11:06:48.744Z,8.43
2018-05-31T11:09:16.971Z,9.15
2018-05-31T11:11:45.223Z,8.38
2018-05-31T11:14:13.447Z,8.00
2018-05-31T11:16:42.471Z,8.82
2018-05-31T11:19:10.711Z,8.30
2018-05-31T11:21:39.722Z,8.20
2018-05-31T11:24:08.725Z,8.02
2018-05-31T11:26:36.951Z,8.68
2018-05-31T11:29:05.281Z,8.30
2018-05-31T11:31:34.255Z,8.05
2018-05-31T11:34:03.260Z,8.52
2018-05-31T11:36:31.539Z,7.97
2018-05-31T11:38:59.743Z,8.18
2018-05-31T11:41:27.966Z,8.15
2018-05-31T11:43:56.214Z,6.20
2018-05-31T11:46:24.439Z,6.57
2018-05-31T11:48:52.692Z,7.20
2018-05-31T11:51:20.928Z,7.18
2018-05-31T11:53:49.176Z,6.55
2018-05-31T11:56:17.407Z,5.82
2018-05-31T11:58:45.659Z,5.85
2018-05-31T12:01:13.887Z,4.90
2018-05-31T12:03:42.166Z,5.57
2018-05-31T12:06:10.363Z,5.62
2018-05-31T12:08:38.607Z,4.87
2018-05-31T12:11:06.838Z,5.45
2018-05-31T12:13:35.858Z,5.70
2018-05-31T12:16:04.085Z,6.22
2018-05-31T12:18:32.340Z,5.70
2018-05-31T12:21:00.566Z,6.22
2018-05-31T12:23:28.820Z,7.10
2018-05-31T12:25:57.817Z,6.78
2018-05-31T12:28:26.829Z,6.95
2018-05-31T12:30:55.083Z,7.20
2018-05-31T12:33:24.153Z,7.22
2018-05-31T12:35:52.434Z,6.75
2018-05-31T12:38:20.675Z,7.22
2018-05-31T12:40:48.927Z,6.93
2018-05-31T12:43:17.154Z,7.70
2018-05-31T12:45:45.404Z,7.00
2018-05-31T12:48:13.632Z,7.32
2018-05-31T12:50:41.882Z,7.45
2018-05-31T12:53:10.119Z,7.00
2018-05-31T12:55:38.367Z,7.10
2018-05-31T12:58:06.598Z,7.05
2018-05-31T13:00:34.855Z,5.60
2018-05-31T13:03:03.091Z,6.10
2018-05-31T13:05:31.368Z,6.12
2018-05-31T13:07:59.588Z,6.93
2018-05-31T13:10:28.668Z,6.70
2018-05-31T13:12:56.899Z,6.45
2018-05-31T13:15:25.155Z,6.35
2018-05-31T13:17:54.149Z,6.72
2018-05-31T13:20:22.394Z,7.10
2018-05-31T13:22:50.618Z,6.12
2018-05-31T13:25:18.899Z,5.95
2018-05-31T13:27:47.107Z,6.50
2018-05-31T13:30:15.347Z,7.20
2018-05-31T13:32:43.579Z,6.93
2018-05-31T13:35:12.592Z,6.68
2018-05-31T13:37:40.815Z,7.47
2018-05-31T13:40:09.058Z,7.65
2018-05-31T13:42:37.284Z,7.53
2018-05-31T13:45:05.532Z,7.78
2018-05-31T13:47:33.762Z,7.40
2018-05-31T13:50:02.001Z,7.87
2018-05-31T13:52:30.242Z,8.18
2018-05-31T13:54:58.475Z,8.32
2018-05-31T13:57:26.719Z,7.68
2018-05-31T13:59:54.951Z,8.32
2018-05-31T14:02:23.199Z,7.15
2018-05-31T14:04:51.427Z,7.62
2018-05-31T14:07:19.678Z,7.57
2018-05-31T14:09:47.906Z,8.30
2018-05-31T14:12:16.912Z,8.50
2018-05-31T14:14:45.142Z,9.07
2018-05-31T14:17:13.391Z,6.85
2018-05-31T14:19:41.620Z,6.55
2018-05-31T14:22:10.631Z,6.18
2018-05-31T14:24:38.857Z,6.80
2018-05-31T14:27:07.111Z,7.22
2018-05-31T14:29:35.352Z,6.53
2018-05-31T14:32:03.611Z,6.57
2018-05-31T14:34:33.232Z,5.80
2018-05-31T14:37:01.613Z,5.18
2018-05-31T14:39:29.850Z,5.93
2018-05-31T14:41:58.099Z,6.20
2018-05-31T14:44:26.784Z,6.03
2018-05-31T14:46:55.646Z,6.25
2018-05-31T14:49:25.065Z,6.03
2018-05-31T14:51:54.385Z,6.78
2018-05-31T14:54:23.477Z,6.85
2018-05-31T14:56:53.396Z,6.43
2018-05-31T14:59:22.326Z,5.78
2018-05-31T15:01:52.380Z,6.20
2018-05-31T15:04:21.299Z,6.10
2018-05-31T15:06:50.295Z,6.75
2018-05-31T15:09:19.238Z,6.78
2018-05-31T15:11:47.538Z,6.20
2018-05-31T15:14:15.783Z,6.05
2018-05-31T15:16:44.042Z,6.10
2018-05-31T15:19:13.185Z,7.00
2018-05-31T15:21:41.481Z,6.65
2018-05-31T15:24:09.723Z,6.43
2018-05-31T15:26:37.946Z,7.03
2018-05-31T15:29:06.203Z,7.00
2018-05-31T15:31:34.427Z,7.30
2018-05-31T15:34:02.671Z,6.87
2018-05-31T15:36:30.899Z,6.82
2018-05-31T15:38:59.151Z,6.37
2018-05-31T15:41:27.386Z,6.60
2018-05-31T15:43:56.458Z,7.50
2018-05-31T15:46:24.687Z,7.50
2018-05-31T15:48:52.948Z,7.80
2018-05-31T15:51:21.167Z,7.00
2018-05-31T15:53:50.511Z,6.40
2018-05-31T15:56:18.754Z,6.50
2018-05-31T15:58:47.065Z,6.28
2018-05-31T16:01:16.038Z,6.30
2018-05-31T16:03:45.051Z,6.90
2018-05-31T16:06:13.547Z,6.75
2018-05-31T16:08:41.822Z,6.32
2018-05-31T16:11:10.019Z,7.00
2018-05-31T16:13:38.267Z,6.72
2018-05-31T16:16:06.526Z,6.53
2018-05-31T16:18:34.763Z,6.50
2018-05-31T16:21:03.015Z,6.85
2018-05-31T16:23:31.238Z,7.15
2018-05-31T16:25:59.494Z,7.28
2018-05-31T16:28:28.543Z,7.62
2018-05-31T16:30:57.515Z,7.45
2018-05-31T16:33:25.744Z,7.10
2018-05-31T16:35:54.031Z,7.57
2018-05-31T16:38:23.023Z,7.68
2018-05-31T16:40:52.150Z,7.62
2018-05-31T16:43:20.329Z,7.93
2018-05-31T16:45:48.584Z,7.68
2018-05-31T16:48:16.807Z,7.57
2018-05-31T16:50:45.059Z,7.97
2018-05-31T16:53:13.282Z,7.40
2018-05-31T16:55:42.299Z,7.30
2018-05-31T16:58:10.527Z,6.97
2018-05-31T17:00:38.775Z,8.07
2018-05-31T17:03:06.999Z,7.57
2018-05-31T17:05:36.014Z,7.80
2018-05-31T17:08:04.320Z,7.95
2018-05-31T17:10:32.547Z,7.60
2018-05-31T17:13:00.778Z,8.30
2018-05-31T17:15:29.027Z,7.60
2018-05-31T17:17:57.261Z,8.05
2018-05-31T17:20:26.268Z,8.30
2018-05-31T17:22:54.766Z,8.60
2018-05-31T17:25:23.016Z,9.07
2018-05-31T17:27:51.255Z,9.32
2018-05-31T17:30:19.511Z,9.30
2018-05-31T17:32:47.814Z,9.77
2018-05-31T17:35:16.834Z,9.98
2018-05-31T17:37:45.081Z,9.98
2018-05-31T17:40:14.111Z,10.55
2018-05-31T17:42:43.133Z,11.25
2018-05-31T17:45:11.544Z,11.63
2018-05-31T17:47:39.777Z,13.55
2018-05-31T17:50:08.027Z,14.45
2018-05-31T17:52:36.280Z,13.65
2018-05-31T17:55:05.573Z,14.48
2018-05-31T17:57:34.646Z,15.07
2018-05-31T18:00:02.964Z,14.60
2018-05-31T18:02:31.222Z,14.52
2018-05-31T18:05:00.247Z,12.50
2018-05-31T18:07:28.484Z,12.05
2018-05-31T18:09:57.512Z,12.03
2018-05-31T18:12:25.745Z,12.15
2018-05-31T18:14:53.994Z,12.73
2018-05-31T18:17:22.250Z,13.10
2018-05-31T18:19:51.254Z,13.10
2018-05-31T18:22:19.525Z,13.10
2018-05-31T18:24:47.761Z,12.87
2018-05-31T18:27:16.025Z,12.73
2018-05-31T18:29:44.268Z,12.77
2018-05-31T18:32:12.523Z,12.27
2018-05-31T18:34:40.780Z,13.37
2018-05-31T18:37:09.035Z,13.43
2018-05-31T18:39:37.275Z,14.93
2018-05-31T18:42:06.299Z,15.20
2018-05-31T18:44:34.538Z,16.20
2018-05-31T18:47:03.568Z,14.63
2018-05-31T18:49:31.792Z,16.50
2018-05-31T18:52:00.047Z,16.57
2018-05-31T18:54:28.291Z,16.67
2018-05-31T18:56:56.555Z,17.17
2018-05-31T18:59:24.794Z,16.37
2018-05-31T19:01:53.814Z,17.60
2018-05-31T19:04:22.049Z,17.77
2018-05-31T19:06:50.317Z,17.23
2018-05-31T19:09:24.341Z,16.77
2018-05-31T19:11:52.602Z,16.73
2018-05-31T19:14:20.839Z,16.63
2018-05-31T19:16:49.100Z,16.33
2018-05-31T19:19:22.903Z,17.00
2018-05-31T19:21:51.171Z,17.10
2018-05-31T19:24:25.852Z,18.20
2018-05-31T19:26:54.359Z,18.43
2018-05-31T19:29:23.360Z,17.20
2018-05-31T19:31:52.382Z,18.03
2018-05-31T19:34:20.615Z,18.70
2018-05-31T19:36:55.374Z,19.63
2018-05-31T19:39:23.619Z,18.93
2018-05-31T19:41:52.647Z,18.57
2018-05-31T19:44:26.483Z,18.77
2018-05-31T19:46:54.740Z,18.77
2018-05-31T19:49:23.001Z,19.17
2018-05-31T19:51:56.990Z,17.57
2018-05-31T19:54:25.314Z,18.83
2018-05-31T19:56:53.486Z,19.43
2018-05-31T19:59:28.339Z,19.27
2018-05-31T20:02:02.310Z,21.17
2018-05-31T20:04:30.551Z,20.70
2018-05-31T20:06:58.815Z,21.20
2018-05-31T20:09:27.820Z,22.47
2018-05-31T20:11:56.079Z,22.00
2018-05-31T20:14:25.091Z,21.70
2018-05-31T20:16:53.645Z,21.10
2018-05-31T20:19:22.642Z,20.63
2018-05-31T20:21:51.663Z,21.63
2018-05-31T20:24:19.898Z,20.70
2018-05-31T20:26:48.935Z,20.00
2018-05-31T20:29:17.186Z,22.07
2018-05-31T20:31:45.419Z,21.70
2018-05-31T20:34:13.670Z,22.03
2018-05-31T20:36:41.922Z,23.63
2018-05-31T20:39:10.183Z,24.10
2018-05-31T20:41:38.441Z,23.67
2018-05-31T20:44:06.700Z,22.83
2018-05-31T20:46:34.930Z,23.67
2018-05-31T20:49:03.193Z,25.40
2018-05-31T20:51:31.432Z,24.93
2018-05-31T20:54:00.464Z,27.47
2018-05-31T20:56:28.695Z,27.10
2018-05-31T20:58:57.727Z,27.37
2018-05-31T21:01:25.960Z,25.60
2018-05-31T21:03:54.987Z,25.10
2018-05-31T21:06:23.227Z,26.87
2018-05-31T21:08:52.259Z,26.17
2018-05-31T21:11:20.491Z,25.27
2018-05-31T21:13:49.519Z,24.27
2018-05-31T21:16:17.750Z,24.60
2018-05-31T21:18:46.007Z,24.63
2018-05-31T21:21:14.254Z,23.70
2018-05-31T21:23:42.507Z,22.93
2018-05-31T21:26:10.748Z,22.93
2018-05-31T21:28:39.012Z,23.03
2018-05-31T21:31:07.260Z,23.73
2018-05-31T21:33:35.516Z,22.53
2018-05-31T21:36:03.759Z,22.37
2018-05-31T21:38:32.784Z,23.83
2018-05-31T21:41:01.334Z,23.50
2018-05-31T21:43:30.347Z,22.83
2018-05-31T21:45:58.589Z,25.30
2018-05-31T21:48:27.622Z,23.43
2018-05-31T21:50:55.965Z,23.37
2018-05-31T21:53:25.007Z,23.93
2018-05-31T21:55:55.105Z,23.50
2018-05-31T21:58:24.041Z,23.07
2018-05-31T22:00:56.824Z,23.93
2018-05-31T22:03:25.897Z,23.17
2018-05-31T22:05:55.062Z,24.00
2018-05-31T22:08:24.295Z,24.43
2018-05-31T22:10:53.412Z,23.83
2018-05-31T22:13:22.732Z,26.17
2018-05-31T22:15:52.949Z,24.93
2018-05-31T22:18:22.056Z,24.23
2018-05-31T22:20:51.031Z,24.20
2018-05-31T22:23:20.217Z,24.03
2018-05-31T22:25:49.372Z,25.77
2018-05-31T22:28:18.813Z,26.20
2018-05-31T22:30:47.815Z,25.43
2018-05-31T22:33:16.966Z,24.90
2018-05-31T22:35:46.890Z,25.90
2018-05-31T22:38:15.902Z,25.27
2018-05-31T22:40:45.378Z,25.63
2018-05-31T22:43:15.210Z,26.40
2018-05-31T22:45:45.239Z,28.47
2018-05-31T22:48:14.556Z,26.60
2018-05-31T22:50:43.956Z,26.53
2018-05-31T22:53:12.897Z,26.67
2018-05-31T22:55:41.885Z,26.30
2018-05-31T22:58:10.855Z,26.43
2018-05-31T23:00:39.772Z,26.77
2018-05-31T23:03:08.874Z,25.80
2018-05-31T23:05:38.233Z,25.93
2018-05-31T23:08:07.291Z,26.43
2018-05-31T23:10:36.693Z,26.03
2018-05-31T23:13:05.946Z,27.60
2018-05-31T23:15:35.380Z,27.20
2018-05-31T23:18:04.771Z,26.07
2018-05-31T23:20:34.159Z,26.33
2018-05-31T23:23:02.900Z,26.50
2018-05-31T23:25:31.358Z,26.10
2018-05-31T23:27:59.805Z,25.90
2018-05-31T23:30:28.301Z,26.07
2018-05-31T23:35:58.768Z,26.00
2018-05-31T23:38:27.242Z,26.40
2018-05-31T23:40:56.532Z,28.33
2018-05-31T23:43:25.733Z,30.50
2018-05-31T23:45:54.262Z,29.73
2018-05-31T23:48:22.711Z,31.67
2018-05-31T23:50:51.183Z,30.17
2018-05-31T23:53:19.623Z,30.00
2018-05-31T23:55:48.083Z,31.63
2018-05-31T23:58:16.502Z,32.13
